Decoded Metar for KMQI (MANTEO/DARE CO in NC, USA) (IATA:MQI) | Meteo·Mobile Aviation Weather
aviador You're here:

KMQI Decoded Metar

MANTEO/DARE CO in NC, USA
Report Time2019-09-19 06:35:00
UTC Time2019-09-19 07:05:05
Flight Rules vfr VFR
Wind050° at 13 Gusting to 18 kt
W.Decomp.*RWY 05: 12.8 kt HW 2.0 kt RCW
RWY 35: 4.7 kt HW 12.1 kt RCW
Visibility9999 m
Phenomena:N/A
Clouds:Scattered 028 Hf
Scattered 042 Hf
Overcast 060 Hf
Expected CloudBase > 1,600 ft AGL from Temp-Dew spread
Ceiling6,000 ft
Temp18°C (ISA +3)
Dew Point14°C (78% RH)
AAT14.6°C
QNH1022 hPa
Density Alt279 ft
Elevation13 ft
Report Wrong Elevation
Raw Report
KMQI 190635Z AUTO 05013G18KT 10SM SCT028 SCT042 OVC060 18/14 A3017
RMK AO2 P0001 T01780142=

Extra information for KMQI:More info

Metar Taf Metar & Taf Last 4 Metars F.Rules Stats Wind Profile Meteogram Temp Stats Airport Information Weather charts Add Link Nearby VenuesMetar ALERT Operation Metar Decoded Social comments

AIRNAV info for KMQI